createdAt,value
2019-05-25T00:00:02.461Z,20.16
2019-05-25T00:01:02.478Z,20.18
2019-05-25T00:02:02.476Z,20.16
2019-05-25T00:03:02.434Z,20.16
2019-05-25T00:04:02.410Z,20.16
2019-05-25T00:05:02.423Z,20.16
2019-05-25T00:06:02.392Z,20.16
2019-05-25T00:07:02.381Z,20.14
2019-05-25T00:08:02.403Z,20.18
2019-05-25T00:09:02.369Z,20.14
2019-05-25T00:10:02.389Z,20.16
2019-05-25T00:11:02.337Z,20.14
2019-05-25T00:12:02.332Z,20.16
2019-05-25T00:13:02.328Z,20.16
2019-05-25T00:14:02.303Z,20.14
2019-05-25T00:15:02.309Z,20.16
2019-05-25T00:16:02.319Z,20.14
2019-05-25T00:17:02.272Z,20.14
2019-05-25T00:18:02.266Z,20.14
2019-05-25T00:19:02.247Z,20.14
2019-05-25T00:20:02.241Z,20.14
2019-05-25T00:21:02.262Z,20.14
2019-05-25T00:22:02.246Z,20.13
2019-05-25T00:23:02.208Z,20.13
2019-05-25T00:24:11.589Z,20.14
2019-05-25T00:25:03.180Z,20.14
2019-05-25T00:26:02.180Z,20.14
2019-05-25T00:27:02.188Z,20.14
2019-05-25T00:28:02.161Z,20.14
2019-05-25T00:29:02.143Z,20.14
2019-05-25T00:30:02.131Z,20.13
2019-05-25T00:31:02.120Z,20.13
2019-05-25T00:32:02.147Z,20.13
2019-05-25T00:33:02.103Z,20.13
2019-05-25T00:34:02.096Z,20.14
2019-05-25T00:35:02.078Z,20.13
2019-05-25T00:36:02.084Z,20.13
2019-05-25T00:37:02.053Z,20.13
2019-05-25T00:38:02.092Z,20.13
2019-05-25T00:39:02.033Z,20.13
2019-05-25T00:40:02.027Z,20.13
2019-05-25T00:41:02.012Z,20.14
2019-05-25T00:42:01.996Z,20.11
2019-05-25T00:43:02.026Z,20.14
2019-05-25T00:44:02.012Z,20.13
2019-05-25T00:45:01.969Z,20.11
2019-05-25T00:46:01.957Z,20.11
2019-05-25T00:47:01.944Z,20.11
2019-05-25T00:48:01.939Z,20.11
2019-05-25T00:49:01.962Z,20.13
2019-05-25T00:50:01.910Z,20.11
2019-05-25T00:51:01.920Z,20.11
2019-05-25T00:52:01.893Z,20.13
2019-05-25T00:53:01.878Z,20.11
2019-05-25T00:54:01.946Z,20.13
2019-05-25T00:55:01.907Z,20.13
2019-05-25T00:56:01.851Z,20.11
2019-05-25T00:57:01.841Z,20.11
2019-05-25T00:58:01.829Z,20.10
2019-05-25T00:59:01.819Z,20.11
2019-05-25T01:00:01.807Z,20.11
2019-05-25T01:01:01.874Z,20.10
2019-05-25T01:02:01.782Z,20.10
2019-05-25T01:03:01.775Z,20.11
2019-05-25T01:04:01.758Z,20.11
2019-05-25T01:05:01.759Z,20.10
2019-05-25T01:06:01.768Z,20.11
2019-05-25T01:07:01.732Z,20.10
2019-05-25T01:08:01.717Z,20.11
2019-05-25T01:09:01.723Z,20.10
2019-05-25T01:10:01.826Z,20.11
2019-05-25T01:11:01.681Z,20.10
2019-05-25T01:12:01.703Z,20.11
2019-05-25T01:13:01.663Z,20.10
2019-05-25T01:14:01.684Z,20.10
2019-05-25T01:15:01.674Z,20.09
2019-05-25T01:16:01.635Z,20.10
2019-05-25T01:17:01.664Z,20.10
2019-05-25T01:18:01.605Z,20.10
2019-05-25T01:19:01.596Z,20.10
2019-05-25T01:20:01.590Z,20.09
2019-05-25T01:21:01.573Z,20.10
2019-05-25T01:22:01.563Z,20.10
2019-05-25T01:23:01.604Z,20.10
2019-05-25T01:24:01.574Z,20.10
2019-05-25T01:25:01.537Z,20.10
2019-05-25T01:26:01.523Z,20.10
2019-05-25T01:27:01.510Z,20.10
2019-05-25T01:28:01.504Z,20.10
2019-05-25T01:29:01.520Z,20.09
2019-05-25T01:30:01.480Z,20.10
2019-05-25T01:31:01.467Z,20.10
2019-05-25T01:32:01.455Z,20.10
2019-05-25T01:33:01.447Z,20.10
2019-05-25T01:34:01.485Z,20.10
2019-05-25T01:35:01.420Z,20.10
2019-05-25T01:36:01.416Z,20.07
2019-05-25T01:37:01.413Z,20.09
2019-05-25T01:38:01.389Z,20.09
2019-05-25T01:39:01.417Z,20.09
2019-05-25T01:40:01.375Z,20.09
2019-05-25T01:41:01.361Z,20.09
2019-05-25T01:42:01.347Z,20.10
2019-05-25T01:43:01.339Z,20.10
2019-05-25T01:44:01.327Z,20.09
2019-05-25T01:45:01.357Z,20.07
2019-05-25T01:46:01.302Z,20.09
2019-05-25T01:47:01.308Z,20.09
2019-05-25T01:48:01.299Z,20.09
2019-05-25T01:49:01.274Z,20.10
2019-05-25T01:50:01.261Z,20.09
2019-05-25T01:51:01.292Z,20.09
2019-05-25T01:52:01.235Z,20.09
2019-05-25T01:53:01.224Z,20.09
2019-05-25T01:54:01.220Z,20.09
2019-05-25T01:55:01.208Z,20.09
2019-05-25T01:56:01.225Z,20.07
2019-05-25T01:57:01.191Z,20.09
2019-05-25T01:58:01.178Z,20.07
2019-05-25T01:59:01.171Z,20.09
2019-05-25T02:00:01.164Z,20.09
2019-05-25T02:01:01.138Z,20.09
2019-05-25T02:02:01.197Z,20.09
2019-05-25T02:03:01.140Z,20.09
2019-05-25T02:04:01.115Z,20.07
2019-05-25T02:05:01.111Z,20.07
2019-05-25T02:06:01.087Z,20.09
2019-05-25T02:07:01.073Z,20.07
2019-05-25T02:08:01.103Z,20.09
2019-05-25T02:09:01.054Z,20.07
2019-05-25T02:10:01.051Z,20.09
2019-05-25T02:11:01.031Z,20.09
2019-05-25T02:12:01.023Z,20.07
2019-05-25T02:13:01.014Z,20.10
2019-05-25T02:14:01.030Z,20.07
2019-05-25T02:15:00.993Z,20.07
2019-05-25T02:16:00.982Z,20.07
2019-05-25T02:17:00.963Z,20.09
2019-05-25T02:18:00.961Z,20.07
2019-05-25T02:19:00.983Z,20.07
2019-05-25T02:20:00.958Z,20.09
2019-05-25T02:21:00.924Z,20.07
2019-05-25T02:22:00.908Z,20.07
2019-05-25T02:23:00.899Z,20.09
2019-05-25T02:24:01.021Z,20.09
2019-05-25T02:25:16.347Z,20.07
2019-05-25T02:26:01.865Z,20.06
2019-05-25T02:27:00.859Z,20.07
2019-05-25T02:28:00.851Z,20.06
2019-05-25T02:29:00.867Z,20.07
2019-05-25T02:30:00.831Z,20.06
2019-05-25T02:31:00.812Z,20.06
2019-05-25T02:32:00.802Z,20.06
2019-05-25T02:33:00.812Z,20.06
2019-05-25T02:34:00.809Z,20.07
2019-05-25T02:35:00.774Z,20.07
2019-05-25T02:36:00.760Z,20.06
2019-05-25T02:37:00.748Z,20.06
2019-05-25T02:38:00.736Z,20.07
2019-05-25T02:39:00.754Z,20.04
2019-05-25T02:40:00.715Z,20.07
2019-05-25T02:41:00.710Z,20.06
2019-05-25T02:42:00.696Z,20.07
2019-05-25T02:43:00.707Z,20.06
2019-05-25T02:44:00.708Z,20.04
2019-05-25T02:45:00.665Z,20.06
2019-05-25T02:46:00.649Z,20.06
2019-05-25T02:47:00.637Z,20.06
2019-05-25T02:48:00.632Z,20.06
2019-05-25T02:49:00.622Z,20.04
2019-05-25T02:50:00.634Z,20.04
2019-05-25T02:51:00.636Z,20.04
2019-05-25T02:52:00.587Z,20.04
2019-05-25T02:53:00.573Z,20.04
2019-05-25T02:54:00.569Z,20.06
2019-05-25T02:55:00.553Z,20.04
2019-05-25T02:56:00.550Z,20.04
2019-05-25T02:57:00.555Z,20.03
2019-05-25T02:58:00.524Z,20.06
2019-05-25T02:59:00.513Z,20.04
2019-05-25T03:00:00.498Z,20.04
2019-05-25T03:01:00.486Z,20.04
2019-05-25T03:02:00.517Z,20.04
2019-05-25T03:03:00.466Z,20.04
2019-05-25T03:04:00.460Z,20.06
2019-05-25T03:05:00.450Z,20.04
2019-05-25T03:06:00.451Z,20.04
2019-05-25T03:07:00.426Z,20.04
2019-05-25T03:08:00.429Z,20.03
2019-05-25T03:09:00.400Z,20.04
2019-05-25T03:10:00.389Z,20.03
2019-05-25T03:11:00.385Z,20.04
2019-05-25T03:12:00.374Z,20.04
2019-05-25T03:13:00.387Z,20.04
2019-05-25T03:14:00.364Z,20.03
2019-05-25T03:15:00.381Z,20.04
2019-05-25T03:16:00.323Z,20.04
2019-05-25T03:17:00.310Z,20.03
2019-05-25T03:18:00.299Z,20.03
2019-05-25T03:19:00.338Z,20.03
2019-05-25T03:20:00.279Z,20.03
2019-05-25T03:21:00.272Z,20.03
2019-05-25T03:22:00.257Z,20.04
2019-05-25T03:23:00.250Z,20.04
2019-05-25T03:24:00.233Z,20.03
2019-05-25T03:25:00.270Z,20.03
2019-05-25T03:26:00.215Z,20.04
2019-05-25T03:27:00.196Z,20.03
2019-05-25T03:28:00.190Z,20.03
2019-05-25T03:29:00.195Z,20.04
2019-05-25T03:30:00.170Z,20.02
2019-05-25T03:31:00.220Z,20.03
2019-05-25T03:32:00.154Z,20.03
2019-05-25T03:33:00.142Z,20.03
2019-05-25T03:34:00.141Z,20.03
2019-05-25T03:35:00.182Z,20.03
2019-05-25T03:36:00.106Z,20.03
2019-05-25T03:37:00.152Z,20.04
2019-05-25T03:38:00.089Z,20.03
2019-05-25T03:39:00.071Z,20.03
2019-05-25T03:40:00.056Z,20.03
2019-05-25T03:41:00.078Z,20.03
2019-05-25T03:42:00.047Z,20.03
2019-05-25T03:43:00.047Z,20.02
2019-05-25T03:44:00.017Z,20.02
2019-05-25T03:45:00.003Z,20.02
2019-05-25T03:45:59.988Z,20.03
2019-05-25T03:46:59.989Z,20.02
2019-05-25T03:48:00.000Z,20.02
2019-05-25T03:48:59.960Z,20.00
2019-05-25T03:49:59.952Z,20.02
2019-05-25T03:50:59.933Z,20.03
2019-05-25T03:51:59.936Z,20.02
2019-05-25T03:52:59.914Z,20.02
2019-05-25T03:53:59.927Z,20.02
2019-05-25T03:54:59.889Z,20.02
2019-05-25T03:56:05.782Z,20.02
2019-05-25T03:57:00.869Z,20.02
2019-05-25T03:57:59.857Z,20.03
2019-05-25T03:58:59.886Z,20.02
2019-05-25T03:59:59.839Z,20.02
2019-05-25T04:00:59.824Z,20.02
2019-05-25T04:01:59.840Z,20.02
2019-05-25T04:02:59.809Z,20.03
2019-05-25T04:03:59.792Z,20.03
2019-05-25T04:04:59.826Z,20.02
2019-05-25T04:05:59.776Z,20.02
2019-05-25T04:06:59.766Z,20.03
2019-05-25T04:07:59.752Z,20.00
2019-05-25T04:08:59.735Z,20.02
2019-05-25T04:09:59.728Z,20.02
2019-05-25T04:10:59.739Z,20.02
2019-05-25T04:11:59.707Z,20.02
2019-05-25T04:12:59.727Z,20.02
2019-05-25T04:13:59.682Z,20.02
2019-05-25T04:14:59.676Z,20.02
2019-05-25T04:15:59.663Z,20.02
2019-05-25T04:16:59.654Z,20.00
2019-05-25T04:17:59.646Z,20.02
2019-05-25T04:18:59.665Z,20.03
2019-05-25T04:19:59.629Z,20.02
2019-05-25T04:20:59.608Z,20.03
2019-05-25T04:21:59.604Z,20.02
2019-05-25T04:22:59.627Z,20.02
2019-05-25T04:23:59.573Z,20.02
2019-05-25T04:24:59.593Z,20.02
2019-05-25T04:25:59.559Z,20.02
2019-05-25T04:26:59.540Z,20.02
2019-05-25T04:27:59.537Z,20.00
2019-05-25T04:28:59.521Z,20.02
2019-05-25T04:29:59.538Z,20.02
2019-05-25T04:30:59.504Z,20.00
2019-05-25T04:31:59.518Z,20.02
2019-05-25T04:32:59.480Z,20.00
2019-05-25T04:33:59.468Z,20.00
2019-05-25T04:34:59.454Z,20.02
2019-05-25T04:35:59.457Z,20.00
2019-05-25T04:36:59.434Z,20.00
2019-05-25T04:37:59.452Z,20.00
2019-05-25T04:38:59.457Z,20.00
2019-05-25T04:39:59.405Z,20.02
2019-05-25T04:40:59.394Z,20.00
2019-05-25T04:41:59.377Z,20.00
2019-05-25T04:42:59.365Z,20.00
2019-05-25T04:43:59.355Z,19.99
2019-05-25T04:44:59.385Z,20.00
2019-05-25T04:45:59.340Z,20.00
2019-05-25T04:46:59.324Z,20.00
2019-05-25T04:47:59.333Z,19.99
2019-05-25T04:48:59.300Z,19.99
2019-05-25T04:49:59.291Z,20.00
2019-05-25T04:50:59.306Z,20.00
2019-05-25T04:51:59.295Z,20.00
2019-05-25T04:52:59.253Z,20.00
2019-05-25T04:53:59.244Z,20.00
2019-05-25T04:54:59.235Z,20.00
2019-05-25T04:55:59.226Z,20.00
2019-05-25T04:56:59.210Z,20.00
2019-05-25T04:57:59.248Z,20.02
2019-05-25T04:58:59.613Z,20.00
2019-05-25T04:59:59.179Z,20.00
2019-05-25T05:00:59.190Z,20.00
2019-05-25T05:01:59.162Z,20.00
2019-05-25T05:02:59.153Z,20.00
2019-05-25T05:03:59.166Z,20.00
2019-05-25T05:04:59.130Z,20.00
2019-05-25T05:05:59.116Z,20.00
2019-05-25T05:06:59.118Z,20.00
2019-05-25T05:07:59.091Z,20.00
2019-05-25T05:08:59.110Z,20.00
2019-05-25T05:10:02.725Z,19.99
2019-05-25T05:10:59.083Z,20.02
2019-05-25T05:11:59.047Z,20.00
2019-05-25T05:12:59.040Z,19.99
2019-05-25T05:13:59.027Z,20.00
2019-05-25T05:14:59.057Z,19.99
2019-05-25T05:15:58.999Z,20.00
2019-05-25T05:16:58.994Z,20.00
2019-05-25T05:17:58.985Z,20.00
2019-05-25T05:18:58.972Z,20.00
2019-05-25T05:19:58.958Z,19.99
2019-05-25T05:20:58.996Z,20.00
2019-05-25T05:21:58.940Z,19.99
2019-05-25T05:22:58.926Z,20.00
2019-05-25T05:23:58.931Z,20.00
2019-05-25T05:24:58.904Z,20.00
2019-05-25T05:25:58.928Z,20.02
2019-05-25T05:26:58.885Z,20.00
2019-05-25T05:27:58.871Z,19.99
2019-05-25T05:28:58.857Z,19.96
2019-05-25T05:29:58.851Z,20.00
2019-05-25T05:30:58.841Z,20.00
2019-05-25T05:31:58.854Z,20.00
2019-05-25T05:32:58.820Z,20.00
2019-05-25T05:33:58.812Z,20.00
2019-05-25T05:34:58.792Z,20.00
2019-05-25T05:35:58.793Z,19.99
2019-05-25T05:36:58.804Z,19.99
2019-05-25T05:37:58.769Z,19.99
2019-05-25T05:38:58.761Z,19.99
2019-05-25T05:39:58.749Z,19.99
2019-05-25T05:40:58.726Z,20.00
2019-05-25T05:41:58.719Z,19.99
2019-05-25T05:42:58.747Z,19.99
2019-05-25T05:43:58.699Z,20.00
2019-05-25T05:44:58.688Z,19.99
2019-05-25T05:45:58.670Z,19.99
2019-05-25T05:46:58.676Z,20.00
2019-05-25T05:47:58.655Z,19.99
2019-05-25T05:48:58.662Z,20.00
2019-05-25T05:49:58.633Z,19.99
2019-05-25T05:50:58.621Z,19.99
2019-05-25T05:51:58.612Z,19.99
2019-05-25T05:52:58.597Z,20.00
2019-05-25T05:53:58.588Z,19.99
2019-05-25T05:54:58.599Z,20.00
2019-05-25T05:55:58.568Z,19.99
2019-05-25T05:57:11.670Z,19.96
2019-05-25T05:57:59.542Z,19.96
2019-05-25T05:58:58.532Z,19.99
2019-05-25T05:59:58.561Z,20.00
2019-05-25T06:00:58.508Z,19.99
2019-05-25T06:01:58.507Z,19.99
2019-05-25T06:02:58.489Z,20.00
2019-05-25T06:03:58.480Z,19.99
2019-05-25T06:04:58.466Z,19.96
2019-05-25T06:05:58.491Z,19.96
2019-05-25T06:06:58.442Z,20.00
2019-05-25T06:07:58.432Z,20.00
2019-05-25T06:08:58.429Z,19.99
2019-05-25T06:09:58.411Z,19.99
2019-05-25T06:10:58.402Z,19.99
2019-05-25T06:11:58.433Z,19.99
2019-05-25T06:12:58.378Z,20.00
2019-05-25T06:13:58.368Z,19.99
2019-05-25T06:14:58.361Z,19.99
2019-05-25T06:15:58.352Z,20.00
2019-05-25T06:16:58.334Z,20.00
2019-05-25T06:17:58.356Z,19.99
2019-05-25T06:18:58.311Z,19.99
2019-05-25T06:19:58.312Z,19.99
2019-05-25T06:20:58.298Z,19.96
2019-05-25T06:21:58.278Z,19.99
2019-05-25T06:22:58.278Z,19.99
2019-05-25T06:23:58.284Z,19.96
2019-05-25T06:24:58.252Z,19.99
2019-05-25T06:25:58.235Z,19.99
2019-05-25T06:26:58.227Z,19.99
2019-05-25T06:27:58.212Z,19.99
2019-05-25T06:28:58.224Z,19.99
2019-05-25T06:29:58.195Z,19.99
2019-05-25T06:30:58.209Z,19.99
2019-05-25T06:31:58.171Z,20.00
2019-05-25T06:32:58.236Z,20.00
2019-05-25T06:33:58.145Z,19.99
2019-05-25T06:34:58.137Z,19.96
2019-05-25T06:35:58.123Z,19.99
2019-05-25T06:36:58.138Z,19.99
2019-05-25T06:37:58.100Z,19.99
2019-05-25T06:38:58.093Z,19.99
2019-05-25T06:39:58.084Z,19.96
2019-05-25T06:40:58.073Z,19.99
2019-05-25T06:41:58.097Z,19.96
2019-05-25T06:42:58.050Z,19.99
2019-05-25T06:43:58.037Z,19.99
2019-05-25T06:44:58.027Z,19.99
2019-05-25T06:45:58.020Z,19.99
2019-05-25T06:46:58.003Z,19.96
2019-05-25T06:47:58.012Z,19.99
2019-05-25T06:48:57.984Z,20.00
2019-05-25T06:49:57.973Z,19.99
2019-05-25T06:50:57.964Z,19.96
2019-05-25T06:51:57.946Z,19.99
2019-05-25T06:52:58.275Z,19.96
2019-05-25T06:53:57.964Z,19.99
2019-05-25T06:54:57.912Z,19.96
2019-05-25T06:55:57.903Z,19.99
2019-05-25T06:56:57.897Z,19.96
2019-05-25T06:57:57.886Z,19.99
2019-05-25T06:58:57.874Z,19.99
2019-05-25T06:59:57.885Z,19.99
2019-05-25T07:00:57.858Z,19.96
2019-05-25T07:01:57.842Z,20.00
2019-05-25T07:02:57.830Z,20.00
2019-05-25T07:03:57.818Z,19.99
2019-05-25T07:04:57.833Z,19.99
2019-05-25T07:05:57.798Z,19.99
2019-05-25T07:06:57.784Z,19.99
2019-05-25T07:07:57.773Z,19.99
2019-05-25T07:08:57.762Z,19.99
2019-05-25T07:09:57.756Z,19.99
2019-05-25T07:10:57.773Z,20.00
2019-05-25T07:11:57.729Z,20.00
2019-05-25T07:12:57.718Z,20.00
2019-05-25T07:13:57.712Z,20.02
2019-05-25T07:14:57.702Z,20.02
2019-05-25T07:15:57.686Z,20.00
2019-05-25T07:16:57.696Z,20.00
2019-05-25T07:17:57.668Z,20.02
2019-05-25T07:18:57.658Z,20.02
2019-05-25T07:19:57.647Z,20.02
2019-05-25T07:20:57.630Z,20.04
2019-05-25T07:21:57.659Z,20.03
2019-05-25T07:22:57.606Z,20.04
2019-05-25T07:23:57.602Z,20.03
2019-05-25T07:24:57.587Z,20.03
2019-05-25T07:25:57.581Z,20.04
2019-05-25T07:26:57.575Z,20.04
2019-05-25T07:28:00.171Z,20.03
2019-05-25T07:28:57.569Z,20.06
2019-05-25T07:29:57.532Z,20.06
2019-05-25T07:30:57.525Z,20.06
2019-05-25T07:31:57.515Z,20.06
2019-05-25T07:32:57.523Z,20.07
2019-05-25T07:33:57.514Z,20.09
2019-05-25T07:34:57.481Z,20.07
2019-05-25T07:35:57.469Z,20.09
2019-05-25T07:36:57.457Z,20.10
2019-05-25T07:37:57.455Z,20.10
2019-05-25T07:38:57.456Z,20.09
2019-05-25T07:39:57.452Z,20.09
2019-05-25T07:40:57.416Z,20.09
2019-05-25T07:41:57.408Z,20.09
2019-05-25T07:42:57.391Z,20.09
2019-05-25T07:43:57.382Z,20.09
2019-05-25T07:44:57.406Z,20.09
2019-05-25T07:45:57.375Z,20.09
2019-05-25T07:46:57.353Z,20.09
2019-05-25T07:47:57.344Z,20.10
2019-05-25T07:48:57.331Z,20.09
2019-05-25T07:49:57.315Z,20.09
2019-05-25T07:50:57.331Z,20.09
2019-05-25T07:51:57.313Z,20.09
2019-05-25T07:52:57.281Z,20.09
2019-05-25T07:53:57.275Z,20.10
2019-05-25T07:54:57.266Z,20.09
2019-05-25T07:55:57.248Z,20.09
2019-05-25T07:56:57.264Z,20.09
2019-05-25T07:57:57.236Z,20.09
2019-05-25T07:58:57.226Z,20.09
2019-05-25T07:59:57.207Z,20.09
2019-05-25T08:00:57.203Z,20.10
2019-05-25T08:01:57.201Z,20.10
2019-05-25T08:02:57.200Z,20.09
2019-05-25T08:03:57.162Z,20.10
2019-05-25T08:04:57.156Z,20.10
2019-05-25T08:05:57.144Z,20.11
2019-05-25T08:06:57.161Z,20.13
2019-05-25T08:07:57.119Z,20.13
2019-05-25T08:08:57.115Z,20.14
2019-05-25T08:09:57.105Z,20.14
2019-05-25T08:10:57.090Z,20.16
2019-05-25T08:11:57.079Z,20.18
2019-05-25T08:12:57.090Z,20.18
2019-05-25T08:13:57.052Z,20.19
2019-05-25T08:14:57.054Z,20.19
2019-05-25T08:15:57.035Z,20.21
2019-05-25T08:16:57.019Z,20.22
2019-05-25T08:17:57.013Z,20.22
2019-05-25T08:18:57.025Z,20.22
2019-05-25T08:19:57.032Z,20.24
2019-05-25T08:20:56.993Z,20.25
2019-05-25T08:21:56.969Z,20.25
2019-05-25T08:22:56.959Z,20.28
2019-05-25T08:23:56.979Z,20.26
2019-05-25T08:24:56.955Z,20.26
2019-05-25T08:25:56.948Z,20.28
2019-05-25T08:26:56.951Z,20.26
2019-05-25T08:27:56.904Z,20.26
2019-05-25T08:28:56.897Z,20.26
2019-05-25T08:29:56.883Z,20.26
2019-05-25T08:30:56.867Z,20.26
2019-05-25T08:31:56.859Z,20.26
2019-05-25T08:32:56.875Z,20.26
2019-05-25T08:33:56.843Z,20.26
2019-05-25T08:34:56.825Z,20.26
2019-05-25T08:35:56.820Z,20.28
2019-05-25T08:36:56.802Z,20.26
2019-05-25T08:37:56.842Z,20.26
2019-05-25T08:38:56.836Z,20.28
2019-05-25T08:39:56.774Z,20.26
2019-05-25T08:40:56.761Z,20.28
2019-05-25T08:41:56.750Z,20.31
2019-05-25T08:42:56.740Z,20.32
2019-05-25T08:43:56.782Z,20.32
2019-05-25T08:44:56.733Z,20.34
2019-05-25T08:45:56.704Z,20.34
2019-05-25T08:46:56.707Z,20.36
2019-05-25T08:47:57.382Z,20.36
2019-05-25T08:48:56.680Z,20.39
2019-05-25T08:49:56.693Z,20.39
2019-05-25T08:50:59.560Z,20.40
2019-05-25T08:51:56.645Z,20.41
2019-05-25T08:52:56.635Z,20.41
2019-05-25T08:53:56.622Z,20.41
2019-05-25T08:54:56.865Z,20.41
2019-05-25T08:55:56.621Z,20.41
2019-05-25T08:56:56.588Z,20.43
2019-05-25T08:57:56.585Z,20.43
2019-05-25T08:58:56.563Z,20.41
2019-05-25T08:59:56.557Z,20.43
2019-05-25T09:00:56.574Z,20.43
2019-05-25T09:01:56.539Z,20.44
2019-05-25T09:02:56.529Z,20.44
2019-05-25T09:03:56.517Z,20.44
2019-05-25T09:04:56.501Z,20.44
2019-05-25T09:05:56.533Z,20.44
2019-05-25T09:06:56.479Z,20.44
2019-05-25T09:07:56.472Z,20.47
2019-05-25T09:08:56.455Z,20.47
2019-05-25T09:09:56.445Z,20.44
2019-05-25T09:10:56.459Z,20.47
2019-05-25T09:11:56.453Z,20.44
2019-05-25T09:12:56.418Z,20.44
2019-05-25T09:13:56.402Z,20.44
2019-05-25T09:14:56.390Z,20.47
2019-05-25T09:15:56.388Z,20.47
2019-05-25T09:16:56.392Z,20.44
2019-05-25T09:17:56.396Z,20.47
2019-05-25T09:18:56.350Z,20.47
2019-05-25T09:19:56.336Z,20.47
2019-05-25T09:20:56.354Z,20.48
2019-05-25T09:22:02.364Z,20.48
2019-05-25T09:22:57.331Z,20.47
2019-05-25T09:23:56.292Z,20.47
2019-05-25T09:24:56.281Z,20.43
2019-05-25T09:25:56.277Z,20.44
2019-05-25T09:26:56.264Z,20.44
2019-05-25T09:27:56.255Z,20.44
2019-05-25T09:29:04.674Z,20.47
2019-05-25T09:29:57.229Z,20.44
2019-05-25T09:30:56.219Z,20.44
2019-05-25T09:31:56.209Z,20.43
2019-05-25T09:32:56.200Z,20.44
2019-05-25T09:33:56.216Z,20.41
2019-05-25T09:34:56.179Z,20.43
2019-05-25T09:35:56.170Z,20.44
2019-05-25T09:36:56.152Z,20.44
2019-05-25T09:37:56.148Z,20.47
2019-05-25T09:38:56.152Z,20.44
2019-05-25T09:39:56.118Z,20.47
2019-05-25T09:40:56.110Z,20.47
2019-05-25T09:41:56.099Z,20.47
2019-05-25T09:42:56.093Z,20.44
2019-05-25T09:43:56.118Z,20.47
2019-05-25T09:44:56.069Z,20.44
2019-05-25T09:45:56.056Z,20.44
2019-05-25T09:46:56.045Z,20.47
2019-05-25T09:47:56.037Z,20.47
2019-05-25T09:48:56.050Z,20.50
2019-05-25T09:49:56.020Z,20.50
2019-05-25T09:50:56.000Z,20.50
2019-05-25T09:51:55.989Z,20.50
2019-05-25T09:52:55.998Z,20.48
2019-05-25T09:53:55.970Z,20.51
2019-05-25T09:54:55.982Z,20.50
2019-05-25T09:55:55.947Z,20.50
2019-05-25T09:56:55.949Z,20.50
2019-05-25T09:57:55.929Z,20.51
2019-05-25T09:58:55.918Z,20.51
2019-05-25T09:59:55.907Z,20.50
2019-05-25T10:00:55.928Z,20.50
2019-05-25T10:01:55.908Z,20.50
2019-05-25T10:02:55.870Z,20.51
2019-05-25T10:03:56.701Z,20.50
2019-05-25T10:04:55.849Z,20.50
2019-05-25T10:05:55.842Z,20.50
2019-05-25T10:06:55.874Z,20.50
2019-05-25T10:07:55.821Z,20.51
2019-05-25T10:08:55.807Z,20.48
2019-05-25T10:09:55.796Z,20.50
2019-05-25T10:10:55.783Z,20.50
2019-05-25T10:11:55.779Z,20.48
2019-05-25T10:12:55.789Z,20.50
2019-05-25T10:13:55.758Z,20.50
2019-05-25T10:14:55.743Z,20.50
2019-05-25T10:15:55.730Z,20.50
2019-05-25T10:16:55.745Z,20.50
2019-05-25T10:17:55.733Z,20.50
2019-05-25T10:18:55.730Z,20.50
2019-05-25T10:19:55.688Z,20.50
2019-05-25T10:20:55.678Z,20.51
2019-05-25T10:21:59.226Z,20.51
2019-05-25T10:22:55.655Z,20.51
2019-05-25T10:23:55.644Z,20.51
2019-05-25T10:24:55.662Z,20.51
2019-05-25T10:25:55.627Z,20.50
2019-05-25T10:26:55.616Z,20.50
2019-05-25T10:27:55.604Z,20.50
2019-05-25T10:28:55.597Z,20.50
2019-05-25T10:29:55.604Z,20.50
2019-05-25T10:30:55.609Z,20.50
2019-05-25T10:31:55.563Z,20.51
2019-05-25T10:32:55.549Z,20.50
2019-05-25T10:33:55.539Z,20.51
2019-05-25T10:34:55.529Z,20.48
2019-05-25T10:35:55.517Z,20.50
2019-05-25T10:36:55.532Z,20.50
2019-05-25T10:37:55.493Z,20.50
2019-05-25T10:38:55.478Z,20.50
2019-05-25T10:39:55.469Z,20.50
2019-05-25T10:40:58.427Z,20.50
2019-05-25T10:41:55.453Z,20.52
2019-05-25T10:42:55.481Z,20.51
2019-05-25T10:43:55.446Z,20.51
2019-05-25T10:44:55.418Z,20.50
2019-05-25T10:45:55.407Z,20.51
2019-05-25T10:46:55.413Z,20.51
2019-05-25T10:47:55.382Z,20.50
2019-05-25T10:48:55.413Z,20.51
2019-05-25T10:49:55.360Z,20.51
2019-05-25T10:50:55.357Z,20.51
2019-05-25T10:51:55.337Z,20.51
2019-05-25T10:52:55.340Z,20.52
2019-05-25T10:53:55.325Z,20.52
2019-05-25T10:54:55.336Z,20.51
2019-05-25T10:55:55.295Z,20.55
2019-05-25T10:56:55.289Z,20.51
2019-05-25T10:57:55.283Z,20.52
2019-05-25T10:58:55.268Z,20.52
2019-05-25T10:59:55.296Z,20.52
2019-05-25T11:00:55.241Z,20.52
2019-05-25T11:01:55.234Z,20.55
2019-05-25T11:02:55.235Z,20.52
2019-05-25T11:03:55.209Z,20.52
2019-05-25T11:04:55.202Z,20.52
2019-05-25T11:05:55.229Z,20.52
2019-05-25T11:06:55.178Z,20.51
2019-05-25T11:07:55.168Z,20.55
2019-05-25T11:08:55.157Z,20.55
2019-05-25T11:09:55.154Z,20.52
2019-05-25T11:10:55.133Z,20.55
2019-05-25T11:11:55.147Z,20.55
2019-05-25T11:12:55.115Z,20.52
2019-05-25T11:13:55.112Z,20.52
2019-05-25T11:14:55.099Z,20.52
2019-05-25T11:15:55.116Z,20.52
2019-05-25T11:16:55.110Z,20.52
2019-05-25T11:17:55.061Z,20.52
2019-05-25T11:18:55.054Z,20.52
2019-05-25T11:19:55.042Z,20.52
2019-05-25T11:20:55.027Z,20.52
2019-05-25T11:21:55.053Z,20.52
2019-05-25T11:22:55.001Z,20.52
2019-05-25T11:23:54.995Z,20.55
2019-05-25T11:24:54.980Z,20.55
2019-05-25T11:25:54.977Z,20.55
2019-05-25T11:26:54.963Z,20.55
2019-05-25T11:27:54.978Z,20.56
2019-05-25T11:28:55.011Z,20.55
2019-05-25T11:30:08.006Z,20.55
2019-05-25T11:30:55.919Z,20.56
2019-05-25T11:31:58.984Z,20.52
2019-05-25T11:32:55.920Z,20.56
2019-05-25T11:33:54.888Z,20.52
2019-05-25T11:34:54.878Z,20.52
2019-05-25T11:35:54.889Z,20.52
2019-05-25T11:36:54.856Z,20.55
2019-05-25T11:37:54.843Z,20.55
2019-05-25T11:38:54.854Z,20.52
2019-05-25T11:39:54.817Z,20.52
2019-05-25T11:40:54.873Z,20.55
2019-05-25T11:41:54.799Z,20.52
2019-05-25T11:42:54.788Z,20.52
2019-05-25T11:43:54.797Z,20.52
2019-05-25T11:44:54.771Z,20.52
2019-05-25T11:45:54.762Z,20.51
2019-05-25T11:46:54.744Z,20.52
2019-05-25T11:47:54.747Z,20.52
2019-05-25T11:48:54.755Z,20.52
2019-05-25T11:49:54.708Z,20.55
2019-05-25T11:50:54.702Z,20.55
2019-05-25T11:51:54.695Z,20.52
2019-05-25T11:52:54.686Z,20.55
2019-05-25T11:53:54.668Z,20.52
2019-05-25T11:54:54.698Z,20.56
2019-05-25T11:55:54.645Z,20.56
2019-05-25T11:56:54.636Z,20.56
2019-05-25T11:57:54.625Z,20.58
2019-05-25T11:58:54.636Z,20.58
2019-05-25T11:59:54.607Z,20.58
2019-05-25T12:00:54.612Z,20.58
2019-05-25T12:01:54.583Z,20.59
2019-05-25T12:02:54.570Z,20.60
2019-05-25T12:03:54.558Z,20.62
2019-05-25T12:04:54.594Z,20.62
2019-05-25T12:05:54.541Z,20.63
2019-05-25T12:06:54.556Z,20.65
2019-05-25T12:07:54.514Z,20.65
2019-05-25T12:08:54.507Z,20.65
2019-05-25T12:09:54.498Z,20.66
2019-05-25T12:10:54.487Z,20.67
2019-05-25T12:11:54.490Z,20.67
2019-05-25T12:12:54.500Z,20.67
2019-05-25T12:13:54.451Z,20.69
2019-05-25T12:14:54.441Z,20.69
2019-05-25T12:15:54.428Z,20.70
2019-05-25T12:16:54.418Z,20.70
2019-05-25T12:17:54.408Z,20.72
2019-05-25T12:18:54.417Z,20.72
2019-05-25T12:19:54.391Z,20.72
2019-05-25T12:20:54.380Z,20.74
2019-05-25T12:21:54.382Z,20.74
2019-05-25T12:22:54.356Z,20.74
2019-05-25T12:23:54.348Z,20.75
2019-05-25T12:24:54.358Z,20.75
2019-05-25T12:25:54.325Z,20.74
2019-05-25T12:26:54.313Z,20.75
2019-05-25T12:27:54.303Z,20.74
2019-05-25T12:28:54.288Z,20.77
2019-05-25T12:29:54.274Z,20.77
2019-05-25T12:30:54.289Z,20.77
2019-05-25T12:32:03.749Z,20.74
2019-05-25T12:32:55.242Z,20.74
2019-05-25T12:33:54.241Z,20.75
2019-05-25T12:34:54.236Z,20.74
2019-05-25T12:35:54.251Z,20.74
2019-05-25T12:36:54.200Z,20.74
2019-05-25T12:37:54.187Z,20.74
2019-05-25T12:38:54.183Z,20.70
2019-05-25T12:39:54.165Z,20.70
2019-05-25T12:40:54.368Z,20.69
2019-05-25T12:41:54.183Z,20.70
2019-05-25T12:42:54.137Z,20.67
2019-05-25T12:43:54.128Z,20.69
2019-05-25T12:44:54.132Z,20.67
2019-05-25T12:45:54.102Z,20.67
2019-05-25T12:46:54.099Z,20.69
2019-05-25T12:47:54.113Z,20.69
2019-05-25T12:48:54.072Z,20.69
2019-05-25T12:49:54.062Z,20.69
2019-05-25T12:50:54.053Z,20.67
2019-05-25T12:51:54.035Z,20.69